sensor_id;sensor_type;location;lat;lon;timestamp;temperature;humidity
23540;DHT22;11947;50.810;4.394;2023-08-07T00:00:43;12.20;99.90
23540;DHT22;11947;50.810;4.394;2023-08-07T00:03:09;12.10;99.90
23540;DHT22;11947;50.810;4.394;2023-08-07T00:05:36;12.10;99.90
23540;DHT22;11947;50.810;4.394;2023-08-07T00:08:02;12.10;99.90
23540;DHT22;11947;50.810;4.394;2023-08-07T00:10:28;12.10;99.90
23540;DHT22;11947;50.810;4.394;2023-08-07T00:12:53;12.10;99.90
23540;DHT22;11947;50.810;4.394;2023-08-07T00:15:19;12.00;99.90
23540;DHT22;11947;50.810;4.394;2023-08-07T00:17:44;12.10;99.90
23540;DHT22;11947;50.810;4.394;2023-08-07T00:20:10;12.10;99.90
23540;DHT22;11947;50.810;4.394;2023-08-07T00:22:36;12.20;99.90
23540;DHT22;11947;50.810;4.394;2023-08-07T00:25:02;12.20;99.90
23540;DHT22;11947;50.810;4.394;2023-08-07T00:27:27;12.30;99.90
23540;DHT22;11947;50.810;4.394;2023-08-07T00:29:53;12.20;99.90
23540;DHT22;11947;50.810;4.394;2023-08-07T00:32:19;12.20;99.90
23540;DHT22;11947;50.810;4.394;2023-08-07T00:34:45;12.20;99.90
23540;DHT22;11947;50.810;4.394;2023-08-07T00:37:10;12.20;99.90
23540;DHT22;11947;50.810;4.394;2023-08-07T00:39:36;12.20;99.90
23540;DHT22;11947;50.810;4.394;2023-08-07T00:42:01;12.10;99.90
23540;DHT22;11947;50.810;4.394;2023-08-07T00:44:27;12.20;99.90
23540;DHT22;11947;50.810;4.394;2023-08-07T00:46:54;12.20;99.90
23540;DHT22;11947;50.810;4.394;2023-08-07T00:49:20;12.20;99.90
23540;DHT22;11947;50.810;4.394;2023-08-07T00:51:47;12.20;99.90
23540;DHT22;11947;50.810;4.394;2023-08-07T00:54:15;12.10;99.90
23540;DHT22;11947;50.810;4.394;2023-08-07T00:56:43;12.10;99.90
23540;DHT22;11947;50.810;4.394;2023-08-07T00:59:09;12.10;99.90
23540;DHT22;11947;50.810;4.394;2023-08-07T01:01:35;12.10;99.90
23540;DHT22;11947;50.810;4.394;2023-08-07T01:04:01;12.10;99.90
23540;DHT22;11947;50.810;4.394;2023-08-07T01:06:27;12.00;99.90
23540;DHT22;11947;50.810;4.394;2023-08-07T01:08:53;12.00;99.90
23540;DHT22;11947;50.810;4.394;2023-08-07T01:11:24;11.90;99.90
23540;DHT22;11947;50.810;4.394;2023-08-07T01:19:34;11.90;99.90
23540;DHT22;11947;50.810;4.394;2023-08-07T01:24:33;11.90;99.90
23540;DHT22;11947;50.810;4.394;2023-08-07T01:33:16;11.80;99.90
23540;DHT22;11947;50.810;4.394;2023-08-07T01:35:53;11.80;99.90
23540;DHT22;11947;50.810;4.394;2023-08-07T01:38:20;11.80;99.90
23540;DHT22;11947;50.810;4.394;2023-08-07T01:40:48;11.70;99.90
23540;DHT22;11947;50.810;4.394;2023-08-07T01:43:14;11.70;99.90
23540;DHT22;11947;50.810;4.394;2023-08-07T01:45:39;11.70;99.90
23540;DHT22;11947;50.810;4.394;2023-08-07T01:48:05;11.70;99.90
23540;DHT22;11947;50.810;4.394;2023-08-07T01:50:31;11.70;99.90
23540;DHT22;11947;50.810;4.394;2023-08-07T01:52:57;11.70;99.90
23540;DHT22;11947;50.810;4.394;2023-08-07T01:55:23;11.60;99.90
23540;DHT22;11947;50.810;4.394;2023-08-07T01:57:48;11.60;99.90
23540;DHT22;11947;50.810;4.394;2023-08-07T02:00:14;11.60;99.90
23540;DHT22;11947;50.810;4.394;2023-08-07T02:02:40;11.60;99.90
23540;DHT22;11947;50.810;4.394;2023-08-07T02:05:05;11.50;99.90
23540;DHT22;11947;50.810;4.394;2023-08-07T02:07:31;11.60;99.90
23540;DHT22;11947;50.810;4.394;2023-08-07T02:09:58;11.60;99.90
23540;DHT22;11947;50.810;4.394;2023-08-07T02:12:24;11.50;99.90
23540;DHT22;11947;50.810;4.394;2023-08-07T02:14:51;11.50;99.90
23540;DHT22;11947;50.810;4.394;2023-08-07T02:17:16;11.50;99.90
23540;DHT22;11947;50.810;4.394;2023-08-07T02:19:42;11.50;99.90
23540;DHT22;11947;50.810;4.394;2023-08-07T02:22:08;11.50;99.90
23540;DHT22;11947;50.810;4.394;2023-08-07T02:24:33;11.40;99.90
23540;DHT22;11947;50.810;4.394;2023-08-07T02:26:59;11.40;99.90
23540;DHT22;11947;50.810;4.394;2023-08-07T02:29:25;11.40;99.90
23540;DHT22;11947;50.810;4.394;2023-08-07T02:31:50;11.40;99.90
23540;DHT22;11947;50.810;4.394;2023-08-07T02:34:16;11.40;99.90
23540;DHT22;11947;50.810;4.394;2023-08-07T02:36:41;11.40;99.90
23540;DHT22;11947;50.810;4.394;2023-08-07T02:39:07;11.40;99.90
23540;DHT22;11947;50.810;4.394;2023-08-07T02:41:33;11.40;99.90
23540;DHT22;11947;50.810;4.394;2023-08-07T02:43:58;11.40;99.90
23540;DHT22;11947;50.810;4.394;2023-08-07T02:46:24;11.30;99.90
23540;DHT22;11947;50.810;4.394;2023-08-07T02:48:50;11.30;99.90
23540;DHT22;11947;50.810;4.394;2023-08-07T02:51:15;11.30;99.90
23540;DHT22;11947;50.810;4.394;2023-08-07T02:53:41;11.30;99.90
23540;DHT22;11947;50.810;4.394;2023-08-07T02:56:07;11.30;99.90
23540;DHT22;11947;50.810;4.394;2023-08-07T02:58:32;11.40;99.90
23540;DHT22;11947;50.810;4.394;2023-08-07T03:01:04;11.30;99.90
23540;DHT22;11947;50.810;4.394;2023-08-07T03:03:31;11.40;99.90
23540;DHT22;11947;50.810;4.394;2023-08-07T03:05:57;11.40;99.90
23540;DHT22;11947;50.810;4.394;2023-08-07T03:08:22;11.30;99.90
23540;DHT22;11947;50.810;4.394;2023-08-07T03:10:56;11.30;99.90
23540;DHT22;11947;50.810;4.394;2023-08-07T03:13:25;11.30;99.90
23540;DHT22;11947;50.810;4.394;2023-08-07T03:16:02;11.30;99.90
23540;DHT22;11947;50.810;4.394;2023-08-07T03:18:28;11.30;99.90
23540;DHT22;11947;50.810;4.394;2023-08-07T03:20:57;11.30;99.90
23540;DHT22;11947;50.810;4.394;2023-08-07T03:23:27;11.20;99.90
23540;DHT22;11947;50.810;4.394;2023-08-07T03:26:10;11.20;99.90
23540;DHT22;11947;50.810;4.394;2023-08-07T03:28:36;11.30;99.90
23540;DHT22;11947;50.810;4.394;2023-08-07T03:31:02;11.20;99.90
23540;DHT22;11947;50.810;4.394;2023-08-07T03:33:27;11.20;99.90
23540;DHT22;11947;50.810;4.394;2023-08-07T03:35:53;11.20;99.90
23540;DHT22;11947;50.810;4.394;2023-08-07T03:38:19;11.20;99.90
23540;DHT22;11947;50.810;4.394;2023-08-07T03:40:45;11.20;99.90
23540;DHT22;11947;50.810;4.394;2023-08-07T03:43:10;11.20;99.90
23540;DHT22;11947;50.810;4.394;2023-08-07T03:45:36;11.20;99.90
23540;DHT22;11947;50.810;4.394;2023-08-07T03:48:02;11.20;99.90
23540;DHT22;11947;50.810;4.394;2023-08-07T03:50:28;11.20;99.90
23540;DHT22;11947;50.810;4.394;2023-08-07T03:52:56;11.20;99.90
23540;DHT22;11947;50.810;4.394;2023-08-07T03:55:21;11.20;99.90
23540;DHT22;11947;50.810;4.394;2023-08-07T03:57:48;11.20;99.90
23540;DHT22;11947;50.810;4.394;2023-08-07T04:00:14;11.20;99.90
23540;DHT22;11947;50.810;4.394;2023-08-07T04:02:40;11.20;99.90
23540;DHT22;11947;50.810;4.394;2023-08-07T04:05:06;11.20;99.90
23540;DHT22;11947;50.810;4.394;2023-08-07T04:07:32;11.20;99.90
23540;DHT22;11947;50.810;4.394;2023-08-07T04:09:58;11.20;99.90
23540;DHT22;11947;50.810;4.394;2023-08-07T04:12:24;11.20;99.90
23540;DHT22;11947;50.810;4.394;2023-08-07T04:14:49;11.20;99.90
23540;DHT22;11947;50.810;4.394;2023-08-07T04:17:15;11.20;99.90
23540;DHT22;11947;50.810;4.394;2023-08-07T04:19:41;11.20;99.90
23540;DHT22;11947;50.810;4.394;2023-08-07T04:22:07;11.20;99.90
23540;DHT22;11947;50.810;4.394;2023-08-07T04:24:32;11.20;99.90
23540;DHT22;11947;50.810;4.394;2023-08-07T04:26:58;11.20;99.90
23540;DHT22;11947;50.810;4.394;2023-08-07T04:29:24;11.30;99.90
23540;DHT22;11947;50.810;4.394;2023-08-07T04:31:50;11.30;99.90
23540;DHT22;11947;50.810;4.394;2023-08-07T04:34:15;11.20;99.90
23540;DHT22;11947;50.810;4.394;2023-08-07T04:36:41;11.20;99.90
23540;DHT22;11947;50.810;4.394;2023-08-07T04:39:06;11.20;99.90
23540;DHT22;11947;50.810;4.394;2023-08-07T04:41:32;11.20;99.90
23540;DHT22;11947;50.810;4.394;2023-08-07T04:43:58;11.20;99.90
23540;DHT22;11947;50.810;4.394;2023-08-07T04:46:24;11.30;99.90
23540;DHT22;11947;50.810;4.394;2023-08-07T04:48:49;11.30;99.90
23540;DHT22;11947;50.810;4.394;2023-08-07T04:51:15;11.20;99.90
23540;DHT22;11947;50.810;4.394;2023-08-07T04:53:41;11.20;99.90
23540;DHT22;11947;50.810;4.394;2023-08-07T04:56:06;11.30;99.90
23540;DHT22;11947;50.810;4.394;2023-08-07T04:58:32;11.30;99.90
23540;DHT22;11947;50.810;4.394;2023-08-07T05:00:58;11.40;99.90
23540;DHT22;11947;50.810;4.394;2023-08-07T05:03:24;11.40;99.90
23540;DHT22;11947;50.810;4.394;2023-08-07T05:05:58;11.40;99.90
23540;DHT22;11947;50.810;4.394;2023-08-07T05:08:24;11.40;99.90
23540;DHT22;11947;50.810;4.394;2023-08-07T05:10:49;11.40;99.90
23540;DHT22;11947;50.810;4.394;2023-08-07T05:13:15;11.50;99.90
23540;DHT22;11947;50.810;4.394;2023-08-07T05:15:40;11.50;99.90
23540;DHT22;11947;50.810;4.394;2023-08-07T05:18:06;11.60;99.90
23540;DHT22;11947;50.810;4.394;2023-08-07T05:20:32;11.80;99.90
23540;DHT22;11947;50.810;4.394;2023-08-07T05:22:58;11.80;99.90
23540;DHT22;11947;50.810;4.394;2023-08-07T05:25:23;12.00;99.90
23540;DHT22;11947;50.810;4.394;2023-08-07T05:27:49;12.00;99.90
23540;DHT22;11947;50.810;4.394;2023-08-07T05:30:15;12.10;99.90
23540;DHT22;11947;50.810;4.394;2023-08-07T05:32:41;12.30;99.90
23540;DHT22;11947;50.810;4.394;2023-08-07T05:35:07;12.40;99.90
23540;DHT22;11947;50.810;4.394;2023-08-07T05:37:33;12.50;99.90
23540;DHT22;11947;50.810;4.394;2023-08-07T05:39:59;12.50;99.90
23540;DHT22;11947;50.810;4.394;2023-08-07T05:42:25;12.60;99.90
23540;DHT22;11947;50.810;4.394;2023-08-07T05:44:51;12.70;99.90
23540;DHT22;11947;50.810;4.394;2023-08-07T05:47:17;12.70;99.90
23540;DHT22;11947;50.810;4.394;2023-08-07T05:49:42;12.80;99.90
23540;DHT22;11947;50.810;4.394;2023-08-07T05:52:08;12.90;99.90
23540;DHT22;11947;50.810;4.394;2023-08-07T05:54:34;13.00;99.90
23540;DHT22;11947;50.810;4.394;2023-08-07T05:57:00;13.10;99.90
23540;DHT22;11947;50.810;4.394;2023-08-07T05:59:25;13.20;99.90
23540;DHT22;11947;50.810;4.394;2023-08-07T06:01:52;13.20;99.90
23540;DHT22;11947;50.810;4.394;2023-08-07T06:04:18;13.30;99.90
23540;DHT22;11947;50.810;4.394;2023-08-07T06:06:43;13.40;99.90
23540;DHT22;11947;50.810;4.394;2023-08-07T06:09:09;13.60;99.90
23540;DHT22;11947;50.810;4.394;2023-08-07T06:11:35;13.70;99.90
23540;DHT22;11947;50.810;4.394;2023-08-07T06:14:01;13.80;99.90
23540;DHT22;11947;50.810;4.394;2023-08-07T06:16:27;13.90;99.90
23540;DHT22;11947;50.810;4.394;2023-08-07T06:18:53;14.00;99.90
23540;DHT22;11947;50.810;4.394;2023-08-07T06:21:19;14.10;99.90
23540;DHT22;11947;50.810;4.394;2023-08-07T06:23:45;14.30;99.90
23540;DHT22;11947;50.810;4.394;2023-08-07T06:26:12;14.40;99.90
23540;DHT22;11947;50.810;4.394;2023-08-07T06:28:37;14.50;99.90
23540;DHT22;11947;50.810;4.394;2023-08-07T06:31:08;14.60;99.90
23540;DHT22;11947;50.810;4.394;2023-08-07T06:33:34;14.80;99.90
23540;DHT22;11947;50.810;4.394;2023-08-07T06:36:01;14.90;99.90
23540;DHT22;11947;50.810;4.394;2023-08-07T06:38:27;15.10;99.90
23540;DHT22;11947;50.810;4.394;2023-08-07T06:40:52;15.10;99.90
23540;DHT22;11947;50.810;4.394;2023-08-07T06:43:18;15.20;99.90
23540;DHT22;11947;50.810;4.394;2023-08-07T06:45:49;15.40;99.90
23540;DHT22;11947;50.810;4.394;2023-08-07T06:48:16;15.60;99.90
23540;DHT22;11947;50.810;4.394;2023-08-07T06:50:41;15.60;99.90
23540;DHT22;11947;50.810;4.394;2023-08-07T06:53:07;15.70;99.90
23540;DHT22;11947;50.810;4.394;2023-08-07T06:55:33;15.90;99.90
23540;DHT22;11947;50.810;4.394;2023-08-07T06:57:59;16.10;99.90
23540;DHT22;11947;50.810;4.394;2023-08-07T07:00:25;16.10;99.90
23540;DHT22;11947;50.810;4.394;2023-08-07T07:02:50;16.20;99.90
23540;DHT22;11947;50.810;4.394;2023-08-07T07:05:16;16.30;99.90
23540;DHT22;11947;50.810;4.394;2023-08-07T07:07:42;16.40;99.90
23540;DHT22;11947;50.810;4.394;2023-08-07T07:10:07;16.50;99.90
23540;DHT22;11947;50.810;4.394;2023-08-07T07:12:33;16.60;99.90
23540;DHT22;11947;50.810;4.394;2023-08-07T07:14:59;16.60;99.90
23540;DHT22;11947;50.810;4.394;2023-08-07T07:17:24;16.70;99.90
23540;DHT22;11947;50.810;4.394;2023-08-07T07:19:51;16.80;99.90
23540;DHT22;11947;50.810;4.394;2023-08-07T07:22:17;16.90;99.90
23540;DHT22;11947;50.810;4.394;2023-08-07T07:24:42;17.00;99.90
23540;DHT22;11947;50.810;4.394;2023-08-07T07:27:08;17.10;99.90
23540;DHT22;11947;50.810;4.394;2023-08-07T07:29:33;17.10;99.90
23540;DHT22;11947;50.810;4.394;2023-08-07T07:31:59;17.10;99.90
23540;DHT22;11947;50.810;4.394;2023-08-07T07:34:26;17.10;99.90
23540;DHT22;11947;50.810;4.394;2023-08-07T07:36:52;17.20;99.90
23540;DHT22;11947;50.810;4.394;2023-08-07T07:39:19;17.30;99.90
23540;DHT22;11947;50.810;4.394;2023-08-07T07:41:45;17.40;99.90
23540;DHT22;11947;50.810;4.394;2023-08-07T07:44:11;17.40;99.90
23540;DHT22;11947;50.810;4.394;2023-08-07T07:46:36;17.30;99.90
23540;DHT22;11947;50.810;4.394;2023-08-07T07:49:02;17.50;99.90
23540;DHT22;11947;50.810;4.394;2023-08-07T07:51:30;17.60;99.90
23540;DHT22;11947;50.810;4.394;2023-08-07T07:53:57;17.70;99.90
23540;DHT22;11947;50.810;4.394;2023-08-07T07:56:23;17.90;99.90
23540;DHT22;11947;50.810;4.394;2023-08-07T07:58:48;17.90;99.90
23540;DHT22;11947;50.810;4.394;2023-08-07T08:01:14;17.80;99.90
23540;DHT22;11947;50.810;4.394;2023-08-07T08:03:39;17.80;99.90
23540;DHT22;11947;50.810;4.394;2023-08-07T08:06:05;17.90;99.90
23540;DHT22;11947;50.810;4.394;2023-08-07T08:08:31;18.10;99.90
23540;DHT22;11947;50.810;4.394;2023-08-07T08:10:56;18.20;99.90
23540;DHT22;11947;50.810;4.394;2023-08-07T08:13:22;18.40;99.90
23540;DHT22;11947;50.810;4.394;2023-08-07T08:15:49;18.50;99.90
23540;DHT22;11947;50.810;4.394;2023-08-07T08:18:14;18.60;99.90
23540;DHT22;11947;50.810;4.394;2023-08-07T08:20:40;18.70;99.90
23540;DHT22;11947;50.810;4.394;2023-08-07T08:23:06;18.60;99.90
23540;DHT22;11947;50.810;4.394;2023-08-07T08:25:32;18.70;99.90
23540;DHT22;11947;50.810;4.394;2023-08-07T08:28:00;18.90;99.90
23540;DHT22;11947;50.810;4.394;2023-08-07T08:30:26;18.90;99.90
23540;DHT22;11947;50.810;4.394;2023-08-07T08:32:52;19.10;99.90
23540;DHT22;11947;50.810;4.394;2023-08-07T08:35:17;19.10;99.90
23540;DHT22;11947;50.810;4.394;2023-08-07T08:37:43;19.10;99.90
23540;DHT22;11947;50.810;4.394;2023-08-07T08:40:10;19.20;99.90
23540;DHT22;11947;50.810;4.394;2023-08-07T08:42:39;19.30;99.90
23540;DHT22;11947;50.810;4.394;2023-08-07T08:45:07;19.20;99.90
23540;DHT22;11947;50.810;4.394;2023-08-07T08:47:35;19.20;99.90
23540;DHT22;11947;50.810;4.394;2023-08-07T08:50:13;19.30;99.90
23540;DHT22;11947;50.810;4.394;2023-08-07T08:52:44;19.30;99.90
23540;DHT22;11947;50.810;4.394;2023-08-07T08:55:11;19.30;99.90
23540;DHT22;11947;50.810;4.394;2023-08-07T08:57:38;19.50;99.90
23540;DHT22;11947;50.810;4.394;2023-08-07T09:00:06;19.70;99.90
23540;DHT22;11947;50.810;4.394;2023-08-07T09:02:42;19.70;99.90
23540;DHT22;11947;50.810;4.394;2023-08-07T09:05:08;19.70;99.90
23540;DHT22;11947;50.810;4.394;2023-08-07T09:07:35;19.90;99.90
23540;DHT22;11947;50.810;4.394;2023-08-07T09:10:02;20.20;99.90
23540;DHT22;11947;50.810;4.394;2023-08-07T09:12:31;20.30;99.90
23540;DHT22;11947;50.810;4.394;2023-08-07T09:14:58;20.20;99.90
23540;DHT22;11947;50.810;4.394;2023-08-07T09:17:27;20.10;99.90
23540;DHT22;11947;50.810;4.394;2023-08-07T09:19:53;19.80;99.90
23540;DHT22;11947;50.810;4.394;2023-08-07T09:22:19;19.80;99.90
23540;DHT22;11947;50.810;4.394;2023-08-07T09:24:46;19.90;99.90
23540;DHT22;11947;50.810;4.394;2023-08-07T09:27:12;20.10;99.90
23540;DHT22;11947;50.810;4.394;2023-08-07T09:29:42;20.20;99.90
23540;DHT22;11947;50.810;4.394;2023-08-07T09:32:12;20.40;99.90
23540;DHT22;11947;50.810;4.394;2023-08-07T09:37:09;20.60;99.90
23540;DHT22;11947;50.810;4.394;2023-08-07T09:39:36;20.70;99.90
23540;DHT22;11947;50.810;4.394;2023-08-07T09:42:36;20.60;99.90
23540;DHT22;11947;50.810;4.394;2023-08-07T09:44:54;20.50;99.90
23540;DHT22;11947;50.810;4.394;2023-08-07T09:47:21;20.50;99.90
23540;DHT22;11947;50.810;4.394;2023-08-07T09:49:48;20.50;99.90
23540;DHT22;11947;50.810;4.394;2023-08-07T09:52:14;20.60;99.90
23540;DHT22;11947;50.810;4.394;2023-08-07T09:54:41;21.10;99.90
23540;DHT22;11947;50.810;4.394;2023-08-07T09:57:07;21.50;99.90
23540;DHT22;11947;50.810;4.394;2023-08-07T09:59:33;21.40;99.90
23540;DHT22;11947;50.810;4.394;2023-08-07T10:02:01;21.00;99.90
23540;DHT22;11947;50.810;4.394;2023-08-07T10:04:30;21.20;99.90
23540;DHT22;11947;50.810;4.394;2023-08-07T10:06:57;21.90;99.90
23540;DHT22;11947;50.810;4.394;2023-08-07T10:09:23;22.80;99.90
23540;DHT22;11947;50.810;4.394;2023-08-07T10:11:50;24.00;99.90
23540;DHT22;11947;50.810;4.394;2023-08-07T10:14:16;24.90;99.90
23540;DHT22;11947;50.810;4.394;2023-08-07T10:16:42;26.10;99.90
23540;DHT22;11947;50.810;4.394;2023-08-07T10:19:09;27.40;99.90
23540;DHT22;11947;50.810;4.394;2023-08-07T10:21:39;29.10;99.90
23540;DHT22;11947;50.810;4.394;2023-08-07T10:24:07;30.00;99.90
23540;DHT22;11947;50.810;4.394;2023-08-07T10:26:34;30.10;99.90
23540;DHT22;11947;50.810;4.394;2023-08-07T10:29:03;28.40;99.90
23540;DHT22;11947;50.810;4.394;2023-08-07T10:31:30;27.10;99.90
23540;DHT22;11947;50.810;4.394;2023-08-07T10:33:57;25.90;99.90
23540;DHT22;11947;50.810;4.394;2023-08-07T10:36:23;24.90;99.90
23540;DHT22;11947;50.810;4.394;2023-08-07T10:39:06;24.30;99.90
23540;DHT22;11947;50.810;4.394;2023-08-07T10:41:41;26.00;99.90
23540;DHT22;11947;50.810;4.394;2023-08-07T10:44:17;28.40;99.90
23540;DHT22;11947;50.810;4.394;2023-08-07T10:46:51;30.40;99.90
23540;DHT22;11947;50.810;4.394;2023-08-07T10:51:57;33.60;99.90
23540;DHT22;11947;50.810;4.394;2023-08-07T10:54:24;35.10;94.70
23540;DHT22;11947;50.810;4.394;2023-08-07T10:56:54;35.90;93.50
23540;DHT22;11947;50.810;4.394;2023-08-07T10:59:20;34.60;91.20
23540;DHT22;11947;50.810;4.394;2023-08-07T11:01:51;32.30;93.10
23540;DHT22;11947;50.810;4.394;2023-08-07T11:04:17;30.20;94.90
23540;DHT22;11947;50.810;4.394;2023-08-07T11:06:47;28.40;99.10
23540;DHT22;11947;50.810;4.394;2023-08-07T11:09:13;27.10;99.90
23540;DHT22;11947;50.810;4.394;2023-08-07T11:11:40;27.20;99.90
23540;DHT22;11947;50.810;4.394;2023-08-07T11:14:11;29.50;99.90
23540;DHT22;11947;50.810;4.394;2023-08-07T11:16:37;32.00;97.30
23540;DHT22;11947;50.810;4.394;2023-08-07T11:19:03;34.20;94.90
23540;DHT22;11947;50.810;4.394;2023-08-07T11:21:33;35.80;91.50
23540;DHT22;11947;50.810;4.394;2023-08-07T11:24:01;37.40;88.20
23540;DHT22;11947;50.810;4.394;2023-08-07T11:31:28;34.60;86.60
23540;DHT22;11947;50.810;4.394;2023-08-07T11:33:57;33.20;91.30
23540;DHT22;11947;50.810;4.394;2023-08-07T11:36:24;32.30;93.30
23540;DHT22;11947;50.810;4.394;2023-08-07T11:38:52;33.10;89.50
23540;DHT22;11947;50.810;4.394;2023-08-07T11:41:18;32.10;91.90
23540;DHT22;11947;50.810;4.394;2023-08-07T11:43:45;30.40;91.50
23540;DHT22;11947;50.810;4.394;2023-08-07T11:46:13;29.40;94.80
23540;DHT22;11947;50.810;4.394;2023-08-07T11:48:40;28.50;95.70
23540;DHT22;11947;50.810;4.394;2023-08-07T11:51:31;29.10;96.50
23540;DHT22;11947;50.810;4.394;2023-08-07T11:53:57;29.10;94.70
23540;DHT22;11947;50.810;4.394;2023-08-07T11:56:24;28.80;97.50
23540;DHT22;11947;50.810;4.394;2023-08-07T11:58:51;29.60;95.70
23540;DHT22;11947;50.810;4.394;2023-08-07T12:01:20;31.60;93.90
23540;DHT22;11947;50.810;4.394;2023-08-07T12:06:32;35.90;90.40
23540;DHT22;11947;50.810;4.394;2023-08-07T12:09:07;37.60;86.80
23540;DHT22;11947;50.810;4.394;2023-08-07T12:11:38;38.20;78.20
23540;DHT22;11947;50.810;4.394;2023-08-07T12:14:04;36.30;78.80
23540;DHT22;11947;50.810;4.394;2023-08-07T12:16:34;34.40;83.70
23540;DHT22;11947;50.810;4.394;2023-08-07T12:19:03;32.50;89.30
23540;DHT22;11947;50.810;4.394;2023-08-07T12:21:30;31.80;91.10
23540;DHT22;11947;50.810;4.394;2023-08-07T12:23:59;32.80;89.80
23540;DHT22;11947;50.810;4.394;2023-08-07T12:26:25;32.60;90.70
23540;DHT22;11947;50.810;4.394;2023-08-07T12:28:51;31.40;89.80
23540;DHT22;11947;50.810;4.394;2023-08-07T12:31:18;30.40;92.00
23540;DHT22;11947;50.810;4.394;2023-08-07T12:33:43;29.50;94.50
23540;DHT22;11947;50.810;4.394;2023-08-07T12:36:09;28.40;94.70
23540;DHT22;11947;50.810;4.394;2023-08-07T12:38:36;27.50;93.90
23540;DHT22;11947;50.810;4.394;2023-08-07T12:41:01;27.90;96.30
23540;DHT22;11947;50.810;4.394;2023-08-07T12:43:28;29.20;94.00
23540;DHT22;11947;50.810;4.394;2023-08-07T12:45:54;31.00;95.00
23540;DHT22;11947;50.810;4.394;2023-08-07T12:48:20;31.40;94.50
23540;DHT22;11947;50.810;4.394;2023-08-07T12:50:46;32.50;93.70
23540;DHT22;11947;50.810;4.394;2023-08-07T12:53:11;33.30;90.70
23540;DHT22;11947;50.810;4.394;2023-08-07T12:55:37;33.90;90.70
23540;DHT22;11947;50.810;4.394;2023-08-07T12:58:02;32.70;90.60
23540;DHT22;11947;50.810;4.394;2023-08-07T13:00:28;31.40;92.50
23540;DHT22;11947;50.810;4.394;2023-08-07T13:02:54;29.70;94.00
23540;DHT22;11947;50.810;4.394;2023-08-07T13:05:24;28.20;93.00
23540;DHT22;11947;50.810;4.394;2023-08-07T13:07:50;27.20;95.30
23540;DHT22;11947;50.810;4.394;2023-08-07T13:10:19;26.90;99.20
23540;DHT22;11947;50.810;4.394;2023-08-07T13:12:48;28.00;96.70
23540;DHT22;11947;50.810;4.394;2023-08-07T13:15:15;28.40;95.80
23540;DHT22;11947;50.810;4.394;2023-08-07T13:17:42;27.70;95.60
23540;DHT22;11947;50.810;4.394;2023-08-07T13:20:09;26.70;96.40
23540;DHT22;11947;50.810;4.394;2023-08-07T13:22:39;26.10;99.70
23540;DHT22;11947;50.810;4.394;2023-08-07T13:25:07;26.10;99.90
23540;DHT22;11947;50.810;4.394;2023-08-07T13:27:36;28.40;98.80
23540;DHT22;11947;50.810;4.394;2023-08-07T13:30:02;31.10;95.10
23540;DHT22;11947;50.810;4.394;2023-08-07T13:32:28;33.40;90.90
23540;DHT22;11947;50.810;4.394;2023-08-07T13:34:54;34.70;88.60
23540;DHT22;11947;50.810;4.394;2023-08-07T13:37:20;33.30;90.50
23540;DHT22;11947;50.810;4.394;2023-08-07T13:39:46;31.30;90.40
23540;DHT22;11947;50.810;4.394;2023-08-07T13:42:14;29.40;91.60
23540;DHT22;11947;50.810;4.394;2023-08-07T13:44:40;28.00;93.00
23540;DHT22;11947;50.810;4.394;2023-08-07T13:47:06;28.10;95.80
23540;DHT22;11947;50.810;4.394;2023-08-07T13:49:44;30.00;94.80
23540;DHT22;11947;50.810;4.394;2023-08-07T13:52:13;31.50;90.70
23540;DHT22;11947;50.810;4.394;2023-08-07T13:54:53;32.10;92.50
23540;DHT22;11947;50.810;4.394;2023-08-07T13:57:18;31.20;94.20
23540;DHT22;11947;50.810;4.394;2023-08-07T13:59:44;31.20;92.40
23540;DHT22;11947;50.810;4.394;2023-08-07T14:02:10;30.60;91.80
23540;DHT22;11947;50.810;4.394;2023-08-07T14:04:36;29.50;92.50
23540;DHT22;11947;50.810;4.394;2023-08-07T14:07:05;28.10;96.60
23540;DHT22;11947;50.810;4.394;2023-08-07T14:09:31;27.20;94.60
23540;DHT22;11947;50.810;4.394;2023-08-07T14:11:57;26.30;96.90
23540;DHT22;11947;50.810;4.394;2023-08-07T14:14:23;26.30;98.70
23540;DHT22;11947;50.810;4.394;2023-08-07T14:16:48;27.60;98.00
23540;DHT22;11947;50.810;4.394;2023-08-07T14:19:14;27.40;96.00
23540;DHT22;11947;50.810;4.394;2023-08-07T14:21:40;27.00;95.60
23540;DHT22;11947;50.810;4.394;2023-08-07T14:24:06;26.20;98.20
23540;DHT22;11947;50.810;4.394;2023-08-07T14:26:31;25.30;97.80
23540;DHT22;11947;50.810;4.394;2023-08-07T14:28:57;25.00;98.40
23540;DHT22;11947;50.810;4.394;2023-08-07T14:31:25;25.40;99.70
23540;DHT22;11947;50.810;4.394;2023-08-07T14:33:50;26.20;98.00
23540;DHT22;11947;50.810;4.394;2023-08-07T14:36:16;27.10;99.50
23540;DHT22;11947;50.810;4.394;2023-08-07T14:38:42;26.80;98.20
23540;DHT22;11947;50.810;4.394;2023-08-07T14:41:07;26.30;99.20
23540;DHT22;11947;50.810;4.394;2023-08-07T14:45:59;25.20;99.90
23540;DHT22;11947;50.810;4.394;2023-08-07T14:48:24;24.70;99.90
23540;DHT22;11947;50.810;4.394;2023-08-07T14:50:50;24.40;99.90
23540;DHT22;11947;50.810;4.394;2023-08-07T14:53:16;24.20;99.90
23540;DHT22;11947;50.810;4.394;2023-08-07T14:55:44;24.00;99.90
23540;DHT22;11947;50.810;4.394;2023-08-07T14:58:09;23.70;99.90
23540;DHT22;11947;50.810;4.394;2023-08-07T15:00:35;23.60;99.90
23540;DHT22;11947;50.810;4.394;2023-08-07T15:03:01;23.60;99.90
23540;DHT22;11947;50.810;4.394;2023-08-07T15:05:27;23.60;99.90
23540;DHT22;11947;50.810;4.394;2023-08-07T15:07:53;23.30;99.90
23540;DHT22;11947;50.810;4.394;2023-08-07T15:10:19;23.20;99.90
23540;DHT22;11947;50.810;4.394;2023-08-07T15:12:48;23.30;99.90
23540;DHT22;11947;50.810;4.394;2023-08-07T15:15:14;23.30;99.90
23540;DHT22;11947;50.810;4.394;2023-08-07T15:17:40;23.30;99.90
23540;DHT22;11947;50.810;4.394;2023-08-07T15:20:06;23.40;99.90
23540;DHT22;11947;50.810;4.394;2023-08-07T15:22:32;23.10;99.90
23540;DHT22;11947;50.810;4.394;2023-08-07T15:24:57;22.70;99.90
23540;DHT22;11947;50.810;4.394;2023-08-07T15:27:23;22.50;99.90
23540;DHT22;11947;50.810;4.394;2023-08-07T15:29:48;22.50;99.90
23540;DHT22;11947;50.810;4.394;2023-08-07T15:32:14;22.30;99.90
23540;DHT22;11947;50.810;4.394;2023-08-07T15:34:45;22.20;99.90
23540;DHT22;11947;50.810;4.394;2023-08-07T15:37:10;22.40;99.90
23540;DHT22;11947;50.810;4.394;2023-08-07T15:39:36;22.30;99.90
23540;DHT22;11947;50.810;4.394;2023-08-07T15:42:01;22.30;99.90
23540;DHT22;11947;50.810;4.394;2023-08-07T15:44:27;22.20;99.90
23540;DHT22;11947;50.810;4.394;2023-08-07T15:46:53;22.10;99.90
23540;DHT22;11947;50.810;4.394;2023-08-07T15:49:18;22.20;99.90
23540;DHT22;11947;50.810;4.394;2023-08-07T15:51:44;22.10;99.90
23540;DHT22;11947;50.810;4.394;2023-08-07T15:54:14;21.90;99.90
23540;DHT22;11947;50.810;4.394;2023-08-07T15:56:39;21.90;99.90